METAR Data
IDs: Format: Raw Decoded Include TAF

Data at: 1350 UTC 26 Feb 2021

LEVT 261330Z 04008KT 9999 FEW020 BKN028 12/07 Q1031